Flight Track Log - Related Links

Times and Time Zones

All times are in EDT time to prevent confusion due to time zone crossing. See the SWR467 flight status page for this flight to view local times or setup timezone preferences in your user account.

Time Position Orientation Groundspeed Altitude Reporting Facility
EDT Latitude Longitude Course Direction KTS MPH feet Rate Location/Type
01:33PM 51.5050 0.0730 91° East 108 124 200  Level FlightAware (KGJT)
01:33PM 51.5050 0.0830 90° East 108 124 500 1,535 Climbing FlightAware (KGJT)
01:34PM 51.5040 0.1080 94° East 111 128 1,300 1,119 Climbing FlightAware (KGJT)
01:34PM 51.5080 0.1330 76° East 136 157 1,600 750 Climbing FlightAware (KGJT)
01:35PM 51.5140 0.1400 36° Northeast 147 169 1,800 909 Climbing FlightAware (KGJT)
01:35PM 51.5290 0.1500 23° Northeast 173 199 2,100 875 Climbing FlightAware (KGJT)
01:35PM 51.5500 0.1650 24° Northeast 200 230 2,500 837 Climbing FlightAware (KGJT)
01:36PM 51.5570 0.1860 62° Northeast 226 260 2,700 643 Climbing FlightAware (KGJT)
01:36PM 51.5590 0.2070 81° East 247 284 2,800 878 Climbing FlightAware (KGJT)
01:36PM 51.5570 0.2620 93° East 261 300 3,300 1,091 Climbing FlightAware (CYTZ)
01:37PM 51.5540 0.3130 95° East 265 305 3,800 1,125 Climbing FlightAware (CYTZ)
01:37PM 51.5530 0.3250 98° East 269 310 3,900 1,000 Climbing FlightAware (CYTZ)
01:37PM 51.5440 0.3590 113° Southeast 275 316 4,200 913 Climbing FlightAware
01:38PM 51.5300 0.4100 114° Southeast 269 310 4,600 971 Climbing FlightAware
01:38PM 51.5090 0.4860 114° Southeast 274 315 5,300 938 Climbing FlightAware
01:39PM 51.4980 0.5280 113° Southeast 274 315 5,600 679 Climbing FlightAware
01:39PM 51.4830 0.5840 113° Southeast 276 318 5,900 1,500 Climbing FlightAware
01:40PM 51.4690 0.6370 113° Southeast 279 321 7,000 2,204 Climbing FlightAware
01:40PM 51.4576 0.6809 113° Southeast 279 321 7,700 2,040 Climbing FlightAware ADS-B
01:40PM 51.4437 0.7336 113° Southeast 285 328 8,700 2,000 Climbing FlightAware ADS-B
01:41PM 51.4301 0.7866 112° Southeast 288 331 9,500 1,535 Climbing FlightAware ADS-B
01:41PM 51.4212 0.8202 113° Southeast 290 334 9,800 455 Climbing FlightAware ADS-B
01:42PM 51.3954 0.9180 113° Southeast 294 338 10,000 338 Climbing FlightAware UK
01:42PM 51.3840 0.9600 113° Southeast 297 342 10,200 1,000 Climbing FlightAware
01:43PM 51.3600 1.0530 112° Southeast 320 368 11,100 1,023 Climbing FlightAware
01:44PM 51.3400 1.1530 108° East 336 387 11,700 1,098 Climbing FlightAware
01:44PM 51.3310 1.2510 98° East 338 389 12,600 1,435 Climbing FlightAware
01:45PM 51.3160 1.3770 98° East 343 395 13,900 1,500 Climbing FlightAware
01:45PM 51.3141 1.3908 98° East 348 400 14,000 1,435 Climbing FlightAware UK
01:46PM 51.2990 1.4950 103° East 349 402 15,000 1,367 Climbing FlightAware
01:47PM 51.2854 1.5864 103° East 358 412 15,800 1,500 Climbing FlightAware UK
01:47PM 51.2830 1.6030 103° East 349 402 16,100 1,385 Climbing FlightAware
01:48PM 51.2670 1.7080 104° East 351 404 17,000 1,216 Climbing FlightAware
01:48PM 51.2540 1.7940 104° East 354 407 17,600 1,048 Climbing FlightAware
01:49PM 51.2410 1.8730 105° East 358 412 18,100 986 Climbing FlightAware
01:49PM 51.2250 1.9820 103° East 361 415 18,800 940 Climbing FlightAware
01:50PM 51.2081 2.0929 103° East 380 437 19,400 837 Climbing FlightAware UK
01:50PM 51.2090 2.0880 103° East 367 422 19,400 1,024 Level FlightAware
01:51PM 51.1930 2.1990 103° East 367 422 20,100 1,014 Climbing FlightAware
01:51PM 51.1771 2.2817 103° East 384 442 20,600 878 Climbing FlightAware UK
01:51PM 51.1700 2.3010 103° East 372 428 20,700 655 Climbing FlightAware
01:52PM 51.1310 2.4000 122° Southeast 378 435 21,200 750 Climbing FlightAware
01:53PM 51.0943 2.4937 122° Southeast 392 451 21,700 941 Climbing FlightAware UK
01:53PM 51.0830 2.5220 122° Southeast 375 432 22,000 700 Climbing FlightAware
01:54PM 51.0383 2.6364 122° Southeast 396 456 22,400 533 Climbing FlightAware UK
01:54PM 51.0400 2.6320 122° Southeast 379 436 22,400 585 Level FlightAware
01:54PM 51.0030 2.7260 122° Southeast 381 438 22,800 585 Climbing FlightAware
01:54PM 50.9993 2.7373 122° Southeast 398 458 22,800 811 Level FlightAware UK
01:55PM 50.9656 2.8244 122° Southeast 402 463 23,300 818 Climbing FlightAware UK
01:55PM 50.9610 2.8360 122° Southeast 381 438 23,400 625 Climbing FlightAware
01:56PM 50.9230 2.9330 122° Southeast 383 441 23,800 514 Climbing FlightAware
01:56PM 50.8921 3.0127 122° Southeast 406 467 24,000 522 Climbing FlightAware UK
01:57PM 50.8810 3.0390 122° Southeast 389 448 24,200 720 Climbing FlightAware
01:57PM 50.8460 3.1280 122° Southeast 382 440 24,600 789 Climbing FlightAware
01:57PM 50.8403 3.1428 122° Southeast 404 465 24,700 1,412 Climbing FlightAware UK
01:58PM 50.8103 3.2123 122° Southeast 394 453 25,400 1,317 Climbing FlightAware UK
01:58PM 50.8030 3.2320 122° Southeast 372 428 25,600 857 Climbing FlightAware
01:58PM 50.7729 3.3091 122° Southeast 390 449 26,000 750 Climbing FlightAware UK
01:59PM 50.7670 3.3220 122° Southeast 371 427 26,100 556 Climbing FlightAware
01:59PM 50.7246 3.4342 122° Southeast 390 449 26,500 533 Climbing FlightAware UK
01:59PM 50.7270 3.4260 122° Southeast 374 430 26,500 514 Level FlightAware
02:00PM 50.6940 3.5100 122° Southeast 372 428 26,800 640 Climbing FlightAware
02:01PM 50.6570 3.6000 123° Southeast 372 428 27,300 825 Climbing FlightAware
02:01PM 50.6180 3.6940 123° Southeast 371 427 27,900 847 Climbing FlightAware
02:02PM 50.5770 3.7970 122° Southeast 369 425 28,500 776 Climbing FlightAware
02:03PM 50.5400 3.8890 122° Southeast 368 423 29,000 353 Climbing FlightAware
02:03PM 50.4970 3.9930 123° Southeast 385 443 29,000  Level FlightAware
02:04PM 50.4567 4.0806 123° Southeast 1 1 29,000  Level FlightAware UK
02:04PM 50.4530 4.0970 123° Southeast 389 448 29,000  Level FlightAware
02:05PM 50.4140 4.1920 123° Southeast 391 450 29,000  Level FlightAware
02:05PM 50.3740 4.2900 123° Southeast 394 453 29,000  Level FlightAware
02:06PM 50.3300 4.3950 123° Southeast 394 453 29,000  Level FlightAware
02:07PM 50.2860 4.4850 127° Southeast 394 453 29,000  Level FlightAware
02:08PM 50.2390 4.5690 131° Southeast 395 455 29,000  Level FlightAware
02:08PM 50.1840 4.6680 131° Southeast 395 455 29,000  Level FlightAware
02:09PM 50.1360 4.7530 131° Southeast 394 453 29,000  Level FlightAware
02:09PM 50.1215 4.7469 131° Southeast 1 1 29,000  Level FlightAware UK
02:10PM 50.0888 4.8448 131° Southeast 1 1 29,000  Level FlightAware UK
02:10PM 50.0840 4.8470 131° Southeast 392 451 29,000  Level FlightAware
02:10PM 50.0340 4.9340 132° Southeast 393 452 29,000  Level FlightAware
02:11PM 49.9830 5.0220 132° Southeast 394 453 29,000  Level FlightAware
02:12PM 49.9330 5.1110 131° Southeast 394 453 29,000  Level FlightAware
02:13PM 49.8540 5.2490 132° Southeast 389 448 29,000  Level FlightAware
02:14PM 49.8000 5.3420 132° Southeast 393 452 29,000  Level FlightAware
02:14PM 49.7460 5.4360 132° Southeast 388 447 29,000  Level FlightAware
02:15PM 49.6970 5.5200 132° Southeast 389 448 29,000  Level FlightAware
02:16PM 49.6170 5.6580 132° Southeast 396 456 29,000  Level FlightAware
02:17PM 49.5620 5.7510 132° Southeast 397 457 29,000  Level FlightAware
02:18PM 49.4660 5.9140 132° Southeast 396 456 29,000  Level FlightAware
02:19PM 49.4150 6.0010 132° Southeast 395 455 29,000  Level FlightAware
02:21PM 49.2949 6.1660 138° Southeast  Level Estimated
02:22PM 49.2219 6.2656 138° Southeast  Level Estimated
02:23PM 49.1489 6.3649 138° Southeast  Level Estimated
02:24PM 49.0758 6.4639 138° Southeast  Level Estimated
02:25PM 49.0027 6.5627 138° Southeast  Level Estimated
02:26PM 48.9294 6.6611 139° Southeast  Level Estimated
02:27PM 48.8560 6.7593 139° Southeast  Level Estimated
02:27PM 48.6580 6.6720 139° Southeast 390 449 29,000  Level FlightAware
02:28PM 48.7826 6.8571 139° Southeast  Level Estimated
02:28PM 48.5630 6.7440 153° Southeast 398 458 27,600  Level FlightAware
02:29PM 48.5080 6.7900 151° Southeast 401 461 26,700 -1,895 Descending FlightAware
02:29PM 48.4050 6.8740 152° Southeast 405 466 25,200 -1,565 Descending FlightAware
02:30PM 48.3220 6.9420 151° Southeast 405 466 24,300 -1,047 Descending FlightAware
02:31PM 48.2640 6.9890 152° Southeast 403 464 23,700 -975 Descending FlightAware
02:32PM 48.1900 7.0510 151° Southeast 409 471 23,000 -975 Descending FlightAware
02:32PM 48.1300 7.1000 151° Southeast 408 470 22,400 -1,040 Descending FlightAware
02:33PM 48.0660 7.1570 149° Southeast 401 461 21,700 -988 Descending FlightAware
02:34PM 48.0050 7.2400 138° Southeast 393 452 21,000 -975 Descending FlightAware
02:34PM 47.9620 7.3080 133° Southeast 385 443 20,400 -1,054 Descending FlightAware
02:35PM 47.9130 7.3860 133° Southeast 380 437 19,700 -907 Descending FlightAware
02:36PM 47.8620 7.4710 132° Southeast 370 426 19,100 -868 Descending FlightAware
02:36PM 47.8280 7.5260 133° Southeast 368 423 18,600 -1,500 Descending FlightAware
02:37PM 47.7740 7.6130 133° Southeast 355 409 17,200 -2,023 Descending FlightAware
02:38PM 47.7300 7.6830 133° Southeast 337 388 15,700 -2,188 Descending FlightAware
02:38PM 47.6820 7.7590 133° Southeast 332 382 14,100 -2,047 Descending FlightAware
02:39PM 47.6440 7.8210 132° Southeast 321 369 12,800 -2,100 Descending FlightAware
02:40PM 47.6020 7.8900 132° Southeast 313 360 11,300 -1,971 Descending FlightAware
02:40PM 47.5770 7.9410 126° Southeast 301 346 10,500 -1,535 Descending FlightAware
02:40PM 47.5760 7.9740 93° East 295 339 10,200 -1,429 Descending FlightAware
02:41PM 47.5860 8.0270 74° East 285 328 9,500 -1,680 Descending FlightAware
02:41PM 47.5930 8.0660 75° East 274 315 8,800 -2,000 Descending FlightAware
02:42PM 47.6030 8.1200 75° East 270 311 7,800 -1,855 Descending FlightAware
02:42PM 47.6100 8.1550 73° East 262 302 7,100 -1,527 Descending FlightAware
02:43PM 47.6190 8.2040 75° East 229 264 6,400 -1,500 Descending FlightAware
02:43PM 47.6260 8.2490 77° East 217 250 5,600 -1,474 Descending FlightAware
02:44PM 47.6230 8.2840 97° East 205 236 5,000 -1,200 Descending FlightAware
02:44PM 47.6190 8.3180 100° East 191 220 4,600 -837 Descending FlightAware
02:44PM 47.6160 8.3390 102° East 177 204 4,400 -545 Descending FlightAware
02:45PM 47.6060 8.3660 119° Southeast 161 185 4,200 -367 Descending FlightAware
02:45PM 47.5930 8.3850 135° Southeast 156 180 4,100 -643 Descending FlightAware
02:46PM 47.5750 8.4090 138° Southeast 156 180 3,600 -878 Descending FlightAware
02:46PM 47.5700 8.4150 141° Southeast 157 181 3,500 -686 Descending FlightAware
02:46PM 47.5570 8.4330 137° Southeast 156 180 3,200 -764 Descending FlightAware
02:47PM 47.5420 8.4530 138° Southeast 135 155 2,800 -448 Descending FlightAware
02:47PM 47.5290 8.4730 134° Southeast 120 138 2,700 -162 Descending FlightAware
02:50PM 47.4647 8.5492 141° Southeast  Level Estimated
02:51PM 47.4647 8.5492 315° West  Level Estimated
02:52PM 47.4647 8.5492 315° West  Level Estimated
02:53PM 47.4647 8.5492 315° West  Level Estimated
02:54PM 47.4647 8.5492 315° West  Level Estimated

Login

Don't have an account? Register now (free) for customized features, flight alerts, and more!